Carp Lake, MI (49718)

7:35 AM EST on February 14, 2016 (GMT -0500)
North Levering MI | | Change Station
CLOSE
Current Station
Personal Weather Station
Location: Levering, MI
Elevation: 741 ft
Nearby Weather Stations

Elev 741 ft 45.67 °N, 84.79 °W | Updated 18 seconds ago

Mostly Cloudy
Mostly Cloudy
-0.7 °F
Feels Like -1 °F
N
1.8
Wind Variable Wind from ESE
Gusts 2.0 mph

Today
High -- | Low -- °F
--% Chance of Precip.
Yesterday
High -- | Low -- °F
Precip. -- in
Pressure 30.48 in
Visibility 6.0 miles
Clouds Overcast 3700 ft
Windchill -1 °F
Dew Point -6 °F
Humidity 77%
Rainfall 0.00 in
Snow Depth Not available.
7:43 AM 6:03 PM
Waxing Crescent, 41% visible
METAR KPLN 141154Z AUTO 00000KT 6SM BR OVC037 M21/M23 A3041 RMK AO2 SLP321 60000 I6000 T12061228 11189 21233 58003
Pressure 30.48 in
Visibility 6.0 miles
Clouds Overcast 3700 ft
Windchill -1 °F
Dew Point -6 °F
Humidity 77%
Rainfall 0.00 in
Snow Depth Not available.
7:43 AM 6:03 PM
Waxing Crescent, 41% visible
METAR KPLN 141154Z AUTO 00000KT 6SM BR OVC037 M21/M23 A3041 RMK AO2 SLP321 60000 I6000 T12061228 11189 21233 58003

10-Day Weather Forecast

Almanac

Astronomy

Feb. 14, 2016 Rise Set
Actual Time
Civil Twilight
Nautical Twilight
Astronomical Twilight
Moon
Length of Visible Light
Length of Day
Tomorrow will be .
, % of the Moon is Illuminated

Today's Extremes

State Highs State Lows

Community

WunderPhotos

Upload Photos

1,892,774 photos uploaded!

WunderBlog® & News

Nearby

Air Quality

  Air Quality AQ Index Pollutant
Not available.

Snow Depth

Station Depth Elevation

Earthquake Activity

City Distance Mag. Time & Date
Minimum magnitude displayed is 2.5.

Coastal Water Temperatures

Place Temperature

Stations

Nearby Weather Stations

Station Location Temp. Windchill Dew Point Humidity Wind Precip. Elev Updated Type
                   

Watches & Warnings

There are currently no watches in effect.